実はあーんまり知られてないこと。

LUXURY FLIGHT

03-6423-7371

羽田本店:東京都大田区羽田5-11-1
営業時間:10:00~20:00
定休日:毎週 月曜日
セントレア店:愛知県常滑市セントレア1-1
営業時間:10:00~20:00 年中無休

lv

実はあーんまり知られてないこと。

STAFF BLOG

2019/12/30 実はあーんまり知られてないこと。

おはようございます

 

いよいよ明日で2019年もラストを迎えます!!

 

羽田周辺のMETARは…

RJTT 300300Z 34006KT 9999 -RA FEW018 BKN022 07/04 Q1024

NOSIG RMK 1CU018 7SC022 A3024

 

弱い雨が降っております

 

 

さてさてさて、

いきなりセントレアの話題で恐縮でございますが、

先月から本格稼働を始めた、「747ドリームリフター」。

 

new4%e6%a9%9f%e7%a8%ae

 

皆様から、たくさんの注目を頂戴し、

日々、ほぼ満員御礼の状況が続いておりますが、

 

 

「HPのあのドリームリフターの画像はどこで手に入れたのですか?」

 

「ボーイングから提供してもらったのですか!?」

 

「写真は社長が撮っているのですか??」

 

 

などなど、別の視点からご質問も多く頂戴しております。

 

 

 

実は、HPに記載されている画像、

フライトオブドリームスやボーイングからの確認をしていただいた上で、

 

 

社長が描いてます。PCで。

 

 

一本一本の線にもこだわって描いてます。

写真のように見える画像も、全部マウスを使って手書きです。笑

 

%e3%82%b9%e3%83%a9%e3%83%88%e3%82%99%e3%83%aa

 

 

このご時世、こんなに効率の悪い作業をして何の意味があるのか…

そんな声が聞こえてきそうですが…。笑

 

 

社長が自ら手で、プレハブ小屋から作り上げたこの会社。

 

「出来ることは何でも自分達でやろう、出来なかったら、そん時考えよう。(できる仲間を見つけよう)」

 

的なスタイルでずーーーーっとやってきました。

 

 

 

787%e6%a9%9f%e9%a6%96

 

 

このアホさが、弊社の情熱であり、魂です。

 

今後も続けていくことは言うまでもありません。

 

この先、どんなにお客様が増えようが、ステージが大きくなろうが、

 

この魂は、ただ、ひたすらに受け継がれます。

 

 

 

もっともっと、多くの皆様に楽しんでいただけるよう、

引き続き精進して参りますので、どうぞよろしくお願いいたします。

 

 

2019年もあとたった一日。

 

 

2020年はより一層飛躍できるよう、今から準備を重ねております。

 

いつもブログを読んでくださり、本当にありがとうございます。

 

 

 

「感謝・感謝・感謝」

 

 

 

 

 

 

 

 

 

 

 

 

 

 

 

 

 

 

 

 

 

 

 

 

TOP